OMD110 EBBR-KBUF
Flight info
| Callsign | OMD110 |
|---|---|
| Flight time | N/A |
| Altitude | 36000 |
| Route | DENUT L610 LAM L10 BPK UN601 LESTA UP6 RODOL UL28 PENIL M144 BAGSO DCT NEBIN/M078F380 DCT 5330N02000W 5230N03000W 5130N04000W 5030N05000W DCT BUDAR/N0446F380 N448A ANATI DCT LIMNS DCT SYR DCT ROC/N0348F160 T608 WOZEE |
| Aircraft | A320/M-SDE3FGHIRWY/LB1 |
Departure
| Time | 2026-04-30 21:36 |
|---|---|
| Airport | Brussels Airport (EBBR) |
Arrival
| Time | N/A |
|---|---|
| Airport | Buffalo Niagara International Airport (KBUF) |
| Time | Latitude | Longitude | Altitude | Speed | Heading |
|---|---|---|---|---|---|
| 2026-04-30 21:24 | 50.89645 | 4.48964 | 149 ft | 0 kts | 335° |
| 2026-04-30 21:27 | 50.89644 | 4.48965 | 149 ft | 2 kts | 335° |
| 2026-04-30 21:27 | 50.89621 | 4.48981 | 151 ft | 4 kts | 336° |
| 2026-04-30 21:27 | 50.89597 | 4.48999 | 152 ft | 4 kts | 328° |
| 2026-04-30 21:28 | 50.89564 | 4.49050 | 155 ft | 4 kts | 336° |
| 2026-04-30 21:28 | 50.89540 | 4.49054 | 156 ft | 4 kts | 14° |
| 2026-04-30 21:28 | 50.89524 | 4.49048 | 157 ft | 0 kts | 15° |
| 2026-04-30 21:30 | 50.89553 | 4.49061 | 156 ft | 7 kts | 16° |
| 2026-04-30 21:31 | 50.89504 | 4.49163 | 160 ft | 10 kts | 195° |
| 2026-04-30 21:31 | 50.89381 | 4.49113 | 165 ft | 8 kts | 197° |
| 2026-04-30 21:32 | 50.89302 | 4.48922 | 166 ft | 15 kts | 249° |
| 2026-04-30 21:32 | 50.89265 | 4.48764 | 164 ft | 16 kts | 250° |
| 2026-04-30 21:32 | 50.89229 | 4.48606 | 164 ft | 15 kts | 250° |
| 2026-04-30 21:32 | 50.89195 | 4.48465 | 164 ft | 13 kts | 250° |
| 2026-04-30 21:33 | 50.89161 | 4.48312 | 164 ft | 18 kts | 251° |
| 2026-04-30 21:33 | 50.89080 | 4.47966 | 164 ft | 14 kts | 250° |
| 2026-04-30 21:33 | 50.89020 | 4.47895 | 168 ft | 7 kts | 177° |
| 2026-04-30 21:34 | 50.88985 | 4.47915 | 172 ft | 6 kts | 159° |
| 2026-04-30 21:34 | 50.88921 | 4.48055 | 178 ft | 9 kts | 124° |
| 2026-04-30 21:34 | 50.88924 | 4.48125 | 179 ft | 0 kts | 72° |
| 2026-04-30 21:35 | 50.88950 | 4.48243 | 179 ft | 41 kts | 70° |
| 2026-04-30 21:35 | 50.89131 | 4.49027 | 177 ft | 107 kts | 70° |
| 2026-04-30 21:35 | 50.89450 | 4.50412 | 178 ft | 158 kts | 70° |
| 2026-04-30 21:36 | 50.89844 | 4.52134 | 644 ft | 166 kts | 72° |
| 2026-04-30 21:36 | 50.90299 | 4.53815 | 1430 ft | 165 kts | 71° |
| 2026-04-30 21:37 | 50.93306 | 4.55723 | 3328 ft | 204 kts | 322° |
| 2026-04-30 21:37 | 50.94185 | 4.53954 | 3793 ft | 211 kts | 294° |
| 2026-04-30 21:37 | 50.94890 | 4.51782 | 4082 ft | 232 kts | 292° |
| 2026-04-30 21:37 | 50.95634 | 4.49347 | 4378 ft | 257 kts | 292° |
| 2026-04-30 21:38 | 50.96458 | 4.46699 | 4840 ft | 278 kts | 294° |
| 2026-04-30 21:38 | 50.97358 | 4.43869 | 5400 ft | 296 kts | 295° |
| 2026-04-30 21:38 | 50.98353 | 4.40865 | 5789 ft | 320 kts | 297° |
| 2026-04-30 21:38 | 50.99447 | 4.37665 | 6297 ft | 337 kts | 297° |
| 2026-04-30 21:39 | 51.00589 | 4.34368 | 7072 ft | 343 kts | 298° |
| 2026-04-30 21:39 | 51.01744 | 4.31027 | 7896 ft | 347 kts | 298° |
| 2026-04-30 21:39 | 51.02904 | 4.27641 | 8726 ft | 351 kts | 298° |
| 2026-04-30 21:39 | 51.04071 | 4.24208 | 9549 ft | 355 kts | 298° |
| 2026-04-30 21:40 | 51.05252 | 4.20726 | 10354 ft | 360 kts | 298° |
| 2026-04-30 21:40 | 51.06440 | 4.17206 | 11113 ft | 363 kts | 298° |
| 2026-04-30 21:40 | 51.07637 | 4.13648 | 11860 ft | 367 kts | 298° |
| 2026-04-30 21:40 | 51.08846 | 4.10049 | 12602 ft | 371 kts | 298° |
| 2026-04-30 21:41 | 51.10068 | 4.06408 | 13346 ft | 375 kts | 298° |
| 2026-04-30 21:41 | 51.11301 | 4.02731 | 14076 ft | 379 kts | 298° |
| 2026-04-30 21:41 | 51.12548 | 3.99012 | 14713 ft | 383 kts | 298° |
| 2026-04-30 21:41 | 51.13808 | 3.95256 | 15345 ft | 387 kts | 298° |
| 2026-04-30 21:42 | 51.15083 | 3.91459 | 15973 ft | 390 kts | 297° |
| 2026-04-30 21:42 | 51.16365 | 3.87623 | 16600 ft | 394 kts | 297° |
| 2026-04-30 21:42 | 51.17655 | 3.83748 | 17224 ft | 398 kts | 297° |
| 2026-04-30 21:42 | 51.18953 | 3.79833 | 17848 ft | 402 kts | 297° |
| 2026-04-30 21:43 | 51.20264 | 3.75872 | 18478 ft | 405 kts | 297° |
| 2026-04-30 21:43 | 51.21135 | 3.73236 | 18850 ft | 408 kts | 297° |
| 2026-04-30 21:43 | 51.22899 | 3.67838 | 19563 ft | 412 kts | 294° |
| 2026-04-30 21:43 | 51.23893 | 3.63548 | 20108 ft | 414 kts | 283° |
| 2026-04-30 21:44 | 51.24517 | 3.59048 | 20657 ft | 417 kts | 280° |
| 2026-04-30 21:44 | 51.25116 | 3.54501 | 21206 ft | 420 kts | 280° |
| 2026-04-30 21:44 | 51.25721 | 3.49917 | 21742 ft | 424 kts | 280° |
| 2026-04-30 21:44 | 51.26328 | 3.45302 | 22264 ft | 427 kts | 281° |
| 2026-04-30 21:45 | 51.26941 | 3.40640 | 22773 ft | 430 kts | 281° |
| 2026-04-30 21:45 | 51.27555 | 3.35946 | 23263 ft | 434 kts | 280° |
| 2026-04-30 21:45 | 51.28170 | 3.31211 | 23778 ft | 437 kts | 280° |
| 2026-04-30 21:45 | 51.28786 | 3.26436 | 24182 ft | 441 kts | 280° |
| 2026-04-30 21:46 | 51.29402 | 3.21630 | 24609 ft | 443 kts | 280° |
| 2026-04-30 21:46 | 51.30016 | 3.16804 | 25045 ft | 444 kts | 280° |
| 2026-04-30 21:46 | 51.30629 | 3.11956 | 25465 ft | 446 kts | 279° |
| 2026-04-30 21:46 | 51.31245 | 3.07085 | 25872 ft | 448 kts | 280° |
| 2026-04-30 21:47 | 51.31864 | 3.02200 | 26275 ft | 450 kts | 279° |
| 2026-04-30 21:47 | 51.32475 | 2.97351 | 26661 ft | 452 kts | 279° |
| 2026-04-30 21:47 | 51.33093 | 2.92413 | 27047 ft | 454 kts | 279° |
| 2026-04-30 21:47 | 51.33710 | 2.87456 | 27421 ft | 456 kts | 279° |
| 2026-04-30 21:48 | 51.34326 | 2.82468 | 27787 ft | 458 kts | 279° |
| 2026-04-30 21:48 | 51.34942 | 2.77457 | 28133 ft | 460 kts | 279° |
| 2026-04-30 21:48 | 51.35564 | 2.72428 | 28492 ft | 462 kts | 279° |
| 2026-04-30 21:48 | 51.36193 | 2.67374 | 28834 ft | 464 kts | 279° |
| 2026-04-30 21:49 | 51.36619 | 2.63951 | 29058 ft | 465 kts | 279° |
| 2026-04-30 21:49 | 51.37251 | 2.58859 | 29384 ft | 467 kts | 279° |
| 2026-04-30 21:49 | 51.37880 | 2.53749 | 29688 ft | 469 kts | 279° |
| 2026-04-30 21:49 | 51.38497 | 2.48679 | 29985 ft | 471 kts | 279° |
| 2026-04-30 21:50 | 51.39120 | 2.43531 | 30279 ft | 472 kts | 279° |
| 2026-04-30 21:50 | 51.39745 | 2.38352 | 30539 ft | 474 kts | 278° |
| 2026-04-30 21:50 | 51.40368 | 2.33174 | 30853 ft | 473 kts | 278° |
| 2026-04-30 21:50 | 51.40986 | 2.28003 | 31183 ft | 472 kts | 278° |
| 2026-04-30 21:51 | 51.41604 | 2.22840 | 31509 ft | 472 kts | 278° |
| 2026-04-30 21:51 | 51.42231 | 2.17689 | 31838 ft | 471 kts | 279° |
| 2026-04-30 21:51 | 51.42863 | 2.12547 | 32168 ft | 470 kts | 279° |
| 2026-04-30 21:51 | 51.43493 | 2.07412 | 32500 ft | 469 kts | 279° |
| 2026-04-30 21:52 | 51.44117 | 2.02296 | 32829 ft | 468 kts | 279° |
| 2026-04-30 21:52 | 51.44735 | 1.97174 | 33158 ft | 467 kts | 278° |
| 2026-04-30 21:52 | 51.45341 | 1.92061 | 33480 ft | 466 kts | 278° |
| 2026-04-30 21:52 | 51.45937 | 1.86954 | 33785 ft | 466 kts | 278° |
| 2026-04-30 21:53 | 51.46531 | 1.81838 | 34072 ft | 467 kts | 278° |
| 2026-04-30 21:53 | 51.47123 | 1.76723 | 34353 ft | 466 kts | 278° |
| 2026-04-30 21:53 | 51.47714 | 1.71614 | 34628 ft | 465 kts | 278° |
| 2026-04-30 21:53 | 51.48298 | 1.66515 | 34908 ft | 465 kts | 278° |
| 2026-04-30 21:54 | 51.48877 | 1.61424 | 35183 ft | 464 kts | 278° |
| 2026-04-30 21:54 | 51.49455 | 1.56335 | 35464 ft | 463 kts | 278° |
| 2026-04-30 21:54 | 51.50033 | 1.51260 | 35736 ft | 462 kts | 278° |
| 2026-04-30 21:54 | 51.50607 | 1.46192 | 35994 ft | 461 kts | 278° |
| 2026-04-30 21:55 | 51.51178 | 1.41137 | 36192 ft | 461 kts | 278° |
| 2026-04-30 21:55 | 51.51746 | 1.36084 | 36256 ft | 460 kts | 278° |
| 2026-04-30 21:55 | 51.52871 | 1.25996 | 36249 ft | 459 kts | 277° |
| 2026-04-30 21:56 | 51.53983 | 1.15917 | 36249 ft | 458 kts | 277° |
| 2026-04-30 21:56 | 51.55083 | 1.05825 | 36250 ft | 458 kts | 277° |
| 2026-04-30 21:57 | 51.56173 | 0.95735 | 36255 ft | 458 kts | 277° |
| 2026-04-30 21:57 | 51.57240 | 0.85845 | 36237 ft | 458 kts | 277° |
| 2026-04-30 21:58 | 51.58341 | 0.75564 | 36236 ft | 457 kts | 277° |
| 2026-04-30 21:58 | 51.59406 | 0.65485 | 36233 ft | 457 kts | 277° |
| 2026-04-30 21:59 | 51.60463 | 0.55417 | 36230 ft | 456 kts | 277° |
| 2026-04-30 22:00 | 51.62038 | 0.40311 | 36242 ft | 457 kts | 277° |
| 2026-04-30 22:00 | 51.63082 | 0.30124 | 36159 ft | 468 kts | 276° |
| 2026-04-30 22:00 | 51.63608 | 0.24947 | 36240 ft | 470 kts | 276° |
| 2026-04-30 22:01 | 51.65217 | 0.14683 | 36225 ft | 479 kts | 291° |
| 2026-04-30 22:01 | 51.68464 | 0.05604 | 36225 ft | 466 kts | 301° |
| 2026-04-30 22:02 | 51.71968 | -0.03122 | 36271 ft | 463 kts | 301° |
| 2026-04-30 22:02 | 51.76111 | -0.11081 | 36270 ft | 466 kts | 318° |
| 2026-04-30 22:03 | 51.81516 | -0.16887 | 36265 ft | 468 kts | 329° |
| 2026-04-30 22:03 | 51.87134 | -0.22209 | 36220 ft | 468 kts | 328° |
| 2026-04-30 22:04 | 51.92734 | -0.27583 | 36222 ft | 468 kts | 328° |
| 2026-04-30 22:05 | 52.01133 | -0.35667 | 36227 ft | 468 kts | 328° |
| 2026-04-30 22:05 | 52.06734 | -0.41061 | 36241 ft | 468 kts | 328° |
| 2026-04-30 22:06 | 52.12337 | -0.46465 | 36243 ft | 468 kts | 328° |
| 2026-04-30 22:06 | 52.20738 | -0.54608 | 36247 ft | 469 kts | 328° |
| 2026-04-30 22:07 | 52.26337 | -0.60049 | 36237 ft | 469 kts | 328° |
| 2026-04-30 22:07 | 52.31896 | -0.65480 | 36238 ft | 469 kts | 328° |
| 2026-04-30 22:08 | 52.37528 | -0.71006 | 36239 ft | 469 kts | 328° |
| 2026-04-30 22:08 | 52.43026 | -0.76613 | 36240 ft | 467 kts | 319° |
| 2026-04-30 22:09 | 52.45301 | -0.80360 | 36239 ft | 463 kts | 306° |
| 2026-04-30 22:09 | 52.47311 | -0.84481 | 36237 ft | 463 kts | 306° |
| 2026-04-30 22:09 | 52.51312 | -0.92771 | 36234 ft | 464 kts | 306° |
| 2026-04-30 22:10 | 52.55302 | -1.01100 | 36194 ft | 464 kts | 306° |
| 2026-04-30 22:10 | 52.59337 | -1.09334 | 36156 ft | 456 kts | 307° |
| 2026-04-30 22:11 | 52.65388 | -1.21228 | 36125 ft | 450 kts | 307° |
| 2026-04-30 22:11 | 52.67371 | -1.25156 | 36112 ft | 439 kts | 307° |
| 2026-04-30 22:12 | 52.69305 | -1.29012 | 36114 ft | 436 kts | 307° |
| 2026-04-30 22:12 | 52.73157 | -1.36748 | 36105 ft | 434 kts | 307° |
| 2026-04-30 22:12 | 52.75068 | -1.40593 | 36248 ft | 433 kts | 307° |
| 2026-04-30 22:13 | 52.76973 | -1.44427 | 36251 ft | 432 kts | 307° |
| 2026-04-30 22:13 | 52.80772 | -1.52107 | 36250 ft | 432 kts | 306° |
| 2026-04-30 22:14 | 52.84556 | -1.59781 | 36246 ft | 428 kts | 306° |
| 2026-04-30 22:14 | 52.88301 | -1.67402 | 36241 ft | 426 kts | 306° |
| 2026-04-30 22:15 | 52.92037 | -1.75019 | 36236 ft | 426 kts | 306° |
| 2026-04-30 22:15 | 52.95772 | -1.82648 | 36229 ft | 426 kts | 306° |
| 2026-04-30 22:16 | 52.99510 | -1.90283 | 36220 ft | 426 kts | 306° |
| 2026-04-30 22:17 | 53.06931 | -2.05548 | 36228 ft | 426 kts | 306° |
| 2026-04-30 22:17 | 53.12487 | -2.17056 | 36237 ft | 425 kts | 306° |
| 2026-04-30 22:18 | 53.18022 | -2.28559 | 36233 ft | 424 kts | 306° |
| 2026-04-30 22:19 | 53.23542 | -2.40091 | 36225 ft | 424 kts | 305° |
| 2026-04-30 22:20 | 53.29079 | -2.51599 | 36224 ft | 424 kts | 306° |
| 2026-04-30 22:20 | 53.34644 | -2.63067 | 36241 ft | 423 kts | 306° |
| 2026-04-30 22:21 | 53.38326 | -2.70731 | 36232 ft | 422 kts | 306° |
| 2026-04-30 22:21 | 53.41994 | -2.78392 | 36221 ft | 421 kts | 306° |
| 2026-04-30 22:22 | 53.45651 | -2.86067 | 36218 ft | 421 kts | 306° |
| 2026-04-30 22:22 | 53.48531 | -2.94465 | 36200 ft | 413 kts | 286° |
| 2026-04-30 22:23 | 53.50236 | -3.03627 | 36199 ft | 411 kts | 283° |
| 2026-04-30 22:23 | 53.51925 | -3.12805 | 36206 ft | 411 kts | 284° |
| 2026-04-30 22:24 | 53.53604 | -3.21929 | 36200 ft | 411 kts | 283° |
| 2026-04-30 22:24 | 53.55276 | -3.31122 | 36195 ft | 411 kts | 283° |
| 2026-04-30 22:25 | 53.56932 | -3.40329 | 36184 ft | 411 kts | 283° |
| 2026-04-30 22:25 | 53.58577 | -3.49475 | 36182 ft | 411 kts | 283° |
| 2026-04-30 22:26 | 53.60933 | -3.62630 | 36170 ft | 411 kts | 283° |
| 2026-04-30 22:27 | 53.61844 | -3.71990 | 36180 ft | 405 kts | 270° |
| 2026-04-30 22:27 | 53.62423 | -3.86205 | 36166 ft | 406 kts | 270° |
| 2026-04-30 22:28 | 53.62993 | -4.00432 | 36149 ft | 406 kts | 270° |
| 2026-04-30 22:29 | 53.63741 | -4.19416 | 36159 ft | 406 kts | 270° |
| 2026-04-30 22:31 | 53.64959 | -4.52670 | 36144 ft | 406 kts | 269° |
| 2026-04-30 22:32 | 53.65779 | -4.76440 | 36149 ft | 406 kts | 269° |
| 2026-04-30 22:33 | 53.66554 | -5.00232 | 36136 ft | 407 kts | 269° |
| 2026-04-30 22:35 | 53.67275 | -5.23983 | 36141 ft | 407 kts | 269° |
| 2026-04-30 22:36 | 53.67943 | -5.47769 | 36137 ft | 406 kts | 269° |
| 2026-04-30 22:37 | 53.68323 | -5.65242 | 36131 ft | 405 kts | 268° |
| 2026-04-30 22:38 | 53.68662 | -5.84245 | 36126 ft | 405 kts | 268° |
| 2026-04-30 22:39 | 53.68914 | -5.98498 | 36125 ft | 405 kts | 268° |
| 2026-04-30 22:40 | 53.69348 | -6.27007 | 36136 ft | 405 kts | 267° |
| 2026-04-30 22:41 | 53.69664 | -6.50792 | 36112 ft | 406 kts | 267° |
| 2026-04-30 22:43 | 53.69974 | -6.79367 | 36124 ft | 406 kts | 266° |
| 2026-04-30 22:44 | 53.70155 | -6.98412 | 36100 ft | 408 kts | 266° |
| 2026-04-30 22:45 | 53.70359 | -7.27155 | 36099 ft | 409 kts | 266° |
| 2026-04-30 22:47 | 53.70497 | -7.55990 | 36090 ft | 411 kts | 265° |
| 2026-04-30 22:48 | 53.70551 | -7.75271 | 36091 ft | 411 kts | 265° |
| 2026-04-30 22:49 | 53.70567 | -8.04263 | 36088 ft | 413 kts | 264° |
| 2026-04-30 22:51 | 53.70525 | -8.33373 | 36087 ft | 414 kts | 264° |
| 2026-04-30 22:52 | 53.70475 | -8.47889 | 36085 ft | 415 kts | 264° |
| 2026-04-30 22:53 | 53.70374 | -8.67388 | 36081 ft | 416 kts | 264° |
| 2026-04-30 22:53 | 53.70277 | -8.82036 | 36081 ft | 416 kts | 263° |
| 2026-04-30 22:55 | 53.70086 | -9.06493 | 36084 ft | 418 kts | 263° |
| 2026-04-30 22:56 | 53.69893 | -9.26125 | 36079 ft | 419 kts | 263° |
| 2026-04-30 22:57 | 53.69606 | -9.50704 | 36081 ft | 420 kts | 262° |
| 2026-04-30 22:58 | 53.69333 | -9.70438 | 36068 ft | 421 kts | 262° |
| 2026-04-30 22:59 | 53.68878 | -10.00117 | 36082 ft | 423 kts | 262° |